Airfield :
LOGIN :

Register | Disclaimer

   EN    FR    IT 

 










Legend :    VFR   Marginal VFR   IFR   Intensive IFR   Very Intensive IFR
Visi :
Ceiling :
>= 8 km
>= 3000ft
5 to 8 km
1000 to 3000 ft
1500m to 5 km
500 to 1000 ft
800 to 1500m
200 to 500 ft
< 800m
< 200 ft
Symbols :   Thunderstorms  Fog  Heavy snow  Heavy precipitations  Wind > 20 kt
SIGMETs :     Misc.  Thunderstorms  Icing  Turbulence  Mountain Waves  Volcanic Ashes







- Airport Elevation : 359 ft
- IATA code : BVA
- Download approach charts


LFOB - Beauvais

CURRENT METAR :
  • 251200Z AUTO 33005KT 250V040 CAVOK 10/M03 Q1012 NOSIG

EXPIRED METARs :
  • 251130Z AUTO 02006KT 290V080 CAVOK 09/M02 Q1012 NOSIG
  • 251100Z AUTO VRB06KT 9999 SCT048 09/M02 Q1013 NOSIG
  • 251030Z AUTO 33008KT 270V020 9999 SCT048 09/M01 Q1013 NOSIG
  • 251000Z AUTO 34008KT 310V010 9999 SCT044 BKN210 08/M03 Q1013 NOSIG
  • 250930Z AUTO 33008KT 310V010 9999 FEW041 BKN096 BKN210 07/M02 Q1013 NOSIG

TAF TAF LFOB
Valid from the 25 at 12:00 until the 26 at 12:00 UTC


251100Z 2512/2612 34010KT 9999 SCT040
PROB30
TEMPO 2515/2518 4000 SHRA BKN040TCU
TEMPO 2609/2612 3000 SHRA BKN030CB
PROB40
TEMPO 2609/2612 36015G25KT TSGR BKN013CB
ATIS : +33 3 44 11 49 28
No reported NOTAMs for that airfield.



MET'MAP, your aeronautical weather chart ! - Copyright ORBIFLY December 2007 - Disclaimer

ORBIFLY MET'MAP TEAM :

Programming & Development : Alexandra Zaïnal
Concept & Development : Baudouin d'Aumeries
Co-Development & Prog : Marc-Olivier Méhu
Technical & hardware support : Manuel Goepfert

Contact : metmap@orbifly.com




SOURCES & CREDITS :

   NOAA